createdAt,value
2019-03-15T00:00:10.067Z,6.40
2019-03-15T00:02:39.458Z,6.40
2019-03-15T00:05:08.734Z,6.40
2019-03-15T00:07:38.063Z,6.50
2019-03-15T00:10:08.148Z,6.50
2019-03-15T00:12:37.441Z,6.50
2019-03-15T00:15:06.772Z,6.50
2019-03-15T00:17:36.101Z,6.60
2019-03-15T00:20:05.710Z,6.60
2019-03-15T00:22:35.156Z,6.60
2019-03-15T00:25:06.075Z,6.70
2019-03-15T00:27:35.465Z,6.70
2019-03-15T00:30:06.984Z,6.70
2019-03-15T00:32:36.270Z,6.70
2019-03-15T00:35:06.105Z,6.80
2019-03-15T00:37:35.398Z,6.80
2019-03-15T00:40:05.390Z,6.80
2019-03-15T00:42:34.752Z,6.80
2019-03-15T00:45:04.310Z,6.80
2019-03-15T00:47:33.674Z,6.80
2019-03-15T00:50:02.982Z,6.80
2019-03-15T00:52:32.261Z,6.80
2019-03-15T00:55:01.589Z,6.90
2019-03-15T00:57:30.971Z,6.90
2019-03-15T01:00:00.402Z,6.90
2019-03-15T01:02:29.873Z,6.90
2019-03-15T01:04:59.183Z,6.90
2019-03-15T01:07:28.540Z,7.00
2019-03-15T01:09:57.939Z,7.00
2019-03-15T01:12:27.596Z,6.90
2019-03-15T01:14:58.005Z,6.90
2019-03-15T01:17:27.441Z,6.80
2019-03-15T01:19:56.726Z,6.80
2019-03-15T01:22:26.055Z,6.80
2019-03-15T01:24:55.368Z,6.90
2019-03-15T01:27:24.657Z,6.90
2019-03-15T01:29:53.960Z,6.90
2019-03-15T01:32:23.319Z,6.90
2019-03-15T01:34:52.737Z,6.90
2019-03-15T01:37:22.140Z,6.90
2019-03-15T01:39:51.763Z,7.00
2019-03-15T01:42:21.891Z,7.00
2019-03-15T01:44:51.644Z,7.00
2019-03-15T01:47:20.923Z,7.00
2019-03-15T01:49:50.250Z,7.00
2019-03-15T01:52:19.612Z,7.00
2019-03-15T01:54:48.980Z,7.00
2019-03-15T01:57:18.286Z,7.00
2019-03-15T01:59:48.380Z,7.00
2019-03-15T02:02:17.774Z,7.00
2019-03-15T02:04:47.123Z,7.00
2019-03-15T02:07:16.573Z,7.00
2019-03-15T02:09:45.900Z,7.00
2019-03-15T02:12:15.284Z,7.00
2019-03-15T02:14:44.496Z,7.00
2019-03-15T02:17:13.805Z,7.10
2019-03-15T02:19:43.130Z,7.00
2019-03-15T02:22:12.538Z,7.10
2019-03-15T02:24:41.850Z,7.10
2019-03-15T02:27:11.251Z,7.10
2019-03-15T02:29:40.632Z,7.10
2019-03-15T02:32:09.968Z,7.10
2019-03-15T02:34:39.284Z,7.10
2019-03-15T02:37:08.608Z,7.10
2019-03-15T02:39:37.902Z,7.10
2019-03-15T02:42:07.351Z,7.00
2019-03-15T02:44:36.628Z,7.00
2019-03-15T02:47:05.950Z,7.00
2019-03-15T02:49:35.248Z,7.10
2019-03-15T02:52:04.548Z,7.00
2019-03-15T02:54:33.817Z,7.00
2019-03-15T02:57:03.173Z,7.00
2019-03-15T02:59:32.454Z,7.00
2019-03-15T03:02:01.831Z,7.00
2019-03-15T03:04:31.150Z,7.00
2019-03-15T03:07:00.466Z,6.90
2019-03-15T03:09:29.777Z,6.90
2019-03-15T03:11:59.172Z,6.90
2019-03-15T03:14:34.601Z,6.90
2019-03-15T03:17:03.951Z,6.90
2019-03-15T03:19:33.216Z,6.90
2019-03-15T03:22:02.520Z,6.80
2019-03-15T03:38:39.184Z,6.70
2019-03-15T04:05:56.918Z,6.90
2019-03-15T04:08:27.571Z,6.90
2019-03-15T04:10:56.896Z,6.90
2019-03-15T04:13:26.275Z,7.00
2019-03-15T04:15:55.549Z,7.00
2019-03-15T04:18:24.846Z,7.00
2019-03-15T04:20:54.138Z,7.00
2019-03-15T04:23:23.449Z,7.00
2019-03-15T04:25:52.737Z,7.00
2019-03-15T04:28:22.160Z,7.00
2019-03-15T04:30:51.460Z,7.00
2019-03-15T04:33:20.833Z,7.10
2019-03-15T04:35:50.126Z,7.10
2019-03-15T04:38:19.481Z,7.10
2019-03-15T04:40:48.770Z,7.10
2019-03-15T04:43:18.102Z,7.10
2019-03-15T04:45:47.402Z,7.10
2019-03-15T04:48:16.667Z,7.20
2019-03-15T04:50:45.997Z,7.20
2019-03-15T04:53:15.402Z,7.20
2019-03-15T04:55:44.682Z,7.10
2019-03-15T04:58:14.003Z,7.20
2019-03-15T05:00:43.364Z,7.10
2019-03-15T05:03:12.708Z,7.10
2019-03-15T05:05:41.996Z,7.10
2019-03-15T05:08:11.335Z,7.00
2019-03-15T05:10:40.715Z,7.00
2019-03-15T05:13:10.044Z,6.90
2019-03-15T05:15:39.327Z,6.90
2019-03-15T05:18:08.637Z,6.80
2019-03-15T05:20:38.036Z,6.80
2019-03-15T05:23:07.417Z,6.70
2019-03-15T05:25:36.729Z,6.60
2019-03-15T05:28:06.046Z,6.60
2019-03-15T05:30:35.359Z,6.50
2019-03-15T05:33:04.666Z,6.40
2019-03-15T05:35:33.967Z,6.40
2019-03-15T05:38:03.377Z,6.40
2019-03-15T05:40:32.693Z,6.40
2019-03-15T05:43:01.995Z,6.40
2019-03-15T05:45:31.394Z,6.50
2019-03-15T05:48:00.811Z,6.50
2019-03-15T05:50:31.348Z,6.50
2019-03-15T05:53:00.670Z,6.50
2019-03-15T05:55:29.982Z,6.50
2019-03-15T05:57:59.381Z,6.40
2019-03-15T06:00:28.782Z,6.40
2019-03-15T06:02:58.166Z,6.40
2019-03-15T06:05:27.502Z,6.40
2019-03-15T06:07:58.289Z,6.40
2019-03-15T06:10:27.704Z,6.50
2019-03-15T06:12:57.003Z,6.50
2019-03-15T06:15:27.201Z,6.50
2019-03-15T06:17:56.553Z,6.50
2019-03-15T06:20:25.962Z,6.60
2019-03-15T06:22:55.300Z,6.60
2019-03-15T06:25:27.764Z,6.60
2019-03-15T06:27:57.164Z,6.70
2019-03-15T06:30:26.848Z,6.90
2019-03-15T06:32:56.239Z,7.00
2019-03-15T06:35:25.582Z,7.10
2019-03-15T06:37:54.905Z,7.20
2019-03-15T06:40:24.177Z,7.50
2019-03-15T06:42:53.509Z,7.70
2019-03-15T06:45:23.021Z,7.80
2019-03-15T06:47:52.343Z,7.80
2019-03-15T06:50:21.666Z,7.90
2019-03-15T06:52:51.028Z,7.80
2019-03-15T06:55:20.500Z,7.90
2019-03-15T06:57:49.781Z,7.90
2019-03-15T07:00:19.141Z,7.90
2019-03-15T07:02:49.199Z,7.90
2019-03-15T07:05:18.456Z,7.90
2019-03-15T07:07:47.862Z,7.90
2019-03-15T07:10:17.167Z,8.00
2019-03-15T07:12:46.482Z,8.20
2019-03-15T07:15:15.962Z,8.30
2019-03-15T07:17:45.323Z,8.40
2019-03-15T07:20:15.008Z,8.50
2019-03-15T07:22:44.448Z,8.70
2019-03-15T07:25:13.886Z,9.00
2019-03-15T07:27:43.320Z,9.30
2019-03-15T07:30:12.942Z,9.30
2019-03-15T07:32:42.332Z,9.40
2019-03-15T07:35:11.777Z,9.50
2019-03-15T07:37:41.083Z,9.60
2019-03-15T07:40:10.481Z,9.60
2019-03-15T07:42:39.977Z,9.70
2019-03-15T07:45:09.537Z,9.60
2019-03-15T07:47:38.925Z,9.80
2019-03-15T07:50:12.718Z,9.90
2019-03-15T07:52:41.398Z,9.80
2019-03-15T07:55:10.786Z,9.90
2019-03-15T07:57:40.136Z,9.80
2019-03-15T08:00:11.069Z,9.80
2019-03-15T08:02:40.418Z,9.70
2019-03-15T08:05:09.957Z,9.80
2019-03-15T08:07:44.719Z,9.80
2019-03-15T08:10:10.453Z,9.80
2019-03-15T08:12:39.852Z,9.80
2019-03-15T08:15:09.502Z,9.80
2019-03-15T08:17:38.831Z,9.80
2019-03-15T08:20:09.195Z,9.70
2019-03-15T08:22:38.503Z,9.70
2019-03-15T08:25:09.351Z,9.70
2019-03-15T08:27:38.790Z,9.70
2019-03-15T08:30:11.347Z,9.80
2019-03-15T08:32:43.489Z,9.80
2019-03-15T08:35:11.754Z,9.90
2019-03-15T08:37:41.260Z,9.90
2019-03-15T08:40:10.846Z,10.00
2019-03-15T08:42:40.177Z,10.20
2019-03-15T08:45:11.884Z,10.40
2019-03-15T08:47:41.186Z,10.70
2019-03-15T08:50:14.971Z,10.80
2019-03-15T08:52:43.983Z,10.70
2019-03-15T08:55:13.540Z,10.70
2019-03-15T08:57:42.930Z,10.80
2019-03-15T09:00:13.921Z,10.80
2019-03-15T09:02:43.228Z,10.80
2019-03-15T09:05:12.782Z,10.90
2019-03-15T09:07:42.101Z,10.80
2019-03-15T09:10:21.962Z,10.80
2019-03-15T09:12:42.414Z,10.70
2019-03-15T09:15:11.852Z,10.70
2019-03-15T09:17:41.169Z,10.80
2019-03-15T09:20:10.694Z,10.70
2019-03-15T09:22:40.007Z,10.60
2019-03-15T09:25:19.085Z,10.60
2019-03-15T09:27:40.935Z,10.50
2019-03-15T09:30:22.517Z,10.40
2019-03-15T09:32:41.669Z,10.30
2019-03-15T09:35:11.301Z,10.40
2019-03-15T09:37:40.599Z,10.50
2019-03-15T09:40:10.567Z,10.50
2019-03-15T09:42:39.955Z,10.80
2019-03-15T09:45:10.451Z,10.70
2019-03-15T09:47:39.732Z,10.70
2019-03-15T09:50:21.515Z,10.60
2019-03-15T09:52:41.508Z,10.40
2019-03-15T09:55:11.076Z,10.30
2019-03-15T09:57:40.387Z,10.20
2019-03-15T10:00:13.496Z,10.30
2019-03-15T10:02:42.820Z,10.20
2019-03-15T10:05:12.226Z,10.30
2019-03-15T10:07:43.360Z,10.40
2019-03-15T10:10:14.117Z,10.50
2019-03-15T10:12:44.817Z,10.60
2019-03-15T10:15:14.352Z,10.70
2019-03-15T10:17:43.746Z,10.70
2019-03-15T10:20:13.828Z,10.80
2019-03-15T10:22:43.129Z,10.90
2019-03-15T10:25:12.480Z,11.30
2019-03-15T10:27:41.805Z,11.70
2019-03-15T10:30:12.703Z,11.80
2019-03-15T10:32:42.079Z,12.10
2019-03-15T10:35:11.401Z,12.20
2019-03-15T10:37:40.785Z,12.20
2019-03-15T10:40:12.981Z,12.10
2019-03-15T10:42:42.382Z,11.40
2019-03-15T10:45:11.756Z,11.10
2019-03-15T10:47:42.532Z,11.00
2019-03-15T10:50:12.961Z,10.80
2019-03-15T10:52:42.324Z,11.00
2019-03-15T10:55:11.936Z,10.80
2019-03-15T10:57:41.290Z,10.60
2019-03-15T11:00:12.401Z,11.00
2019-03-15T11:02:41.774Z,11.00
2019-03-15T11:05:11.393Z,11.00
2019-03-15T11:07:40.697Z,11.10
2019-03-15T11:10:10.364Z,11.00
2019-03-15T11:12:39.718Z,10.80
2019-03-15T11:15:09.527Z,10.70
2019-03-15T11:17:38.828Z,10.50
2019-03-15T11:20:08.628Z,10.60
2019-03-15T11:22:38.015Z,10.60
2019-03-15T11:25:07.404Z,10.20
2019-03-15T11:27:36.715Z,10.00
2019-03-15T11:30:06.237Z,10.00
2019-03-15T11:32:35.561Z,9.80
2019-03-15T11:35:05.507Z,9.90
2019-03-15T11:37:34.949Z,9.70
2019-03-15T11:40:06.389Z,9.40
2019-03-15T11:42:35.829Z,9.30
2019-03-15T11:45:05.609Z,9.20
2019-03-15T11:47:50.082Z,9.20
2019-03-15T11:50:09.452Z,9.40
2019-03-15T11:52:38.815Z,9.20
2019-03-15T11:55:08.824Z,9.10
2019-03-15T11:57:38.142Z,8.80
2019-03-15T12:00:09.683Z,8.90
2019-03-15T12:02:39.094Z,8.80
2019-03-15T12:05:08.758Z,8.70
2019-03-15T12:07:38.095Z,8.80
2019-03-15T12:10:07.985Z,8.60
2019-03-15T12:12:37.311Z,8.50
2019-03-15T12:15:07.895Z,8.60
2019-03-15T12:17:37.492Z,8.50
2019-03-15T12:20:07.759Z,8.50
2019-03-15T12:22:37.183Z,8.50
2019-03-15T12:25:06.659Z,8.50
2019-03-15T12:27:36.033Z,8.50
2019-03-15T12:30:06.509Z,8.50
2019-03-15T12:32:35.785Z,8.50
2019-03-15T12:35:05.805Z,8.50
2019-03-15T12:37:35.139Z,8.40
2019-03-15T12:40:05.563Z,8.40
2019-03-15T12:42:34.934Z,8.30
2019-03-15T12:45:04.560Z,8.30
2019-03-15T12:47:33.925Z,8.30
2019-03-15T12:50:03.265Z,8.30
2019-03-15T12:52:45.880Z,8.30
2019-03-15T12:55:03.699Z,8.30
2019-03-15T12:57:33.016Z,8.30
2019-03-15T13:00:02.367Z,8.30
2019-03-15T13:02:31.696Z,8.40
2019-03-15T13:05:00.998Z,8.40
2019-03-15T13:07:30.401Z,8.50
2019-03-15T13:09:59.705Z,8.50
2019-03-15T13:12:29.131Z,8.60
2019-03-15T13:14:58.498Z,8.70
2019-03-15T13:17:29.415Z,8.70
2019-03-15T13:19:58.789Z,8.70
2019-03-15T13:22:28.244Z,8.80
2019-03-15T13:24:57.520Z,8.80
2019-03-15T13:27:26.910Z,8.90
2019-03-15T13:29:56.219Z,9.10
2019-03-15T13:32:25.606Z,9.20
2019-03-15T13:34:54.953Z,9.20
2019-03-15T13:37:24.276Z,9.20
2019-03-15T13:39:53.699Z,9.20
2019-03-15T13:42:23.066Z,9.20
2019-03-15T13:44:52.421Z,9.40
2019-03-15T13:47:21.844Z,9.50
2019-03-15T13:49:51.139Z,9.60
2019-03-15T13:52:20.505Z,9.80
2019-03-15T13:54:49.872Z,9.90
2019-03-15T13:57:21.535Z,10.00
2019-03-15T13:59:50.272Z,10.20
2019-03-15T14:02:19.572Z,10.30
2019-03-15T14:04:48.944Z,10.30
2019-03-15T14:07:19.987Z,10.30
2019-03-15T14:09:49.391Z,10.30
2019-03-15T14:12:18.853Z,10.30
2019-03-15T14:14:48.246Z,10.20
2019-03-15T14:17:20.856Z,10.30
2019-03-15T14:19:50.187Z,10.50
2019-03-15T14:22:19.519Z,10.60
2019-03-15T14:24:48.891Z,10.80
2019-03-15T14:27:18.390Z,10.90
2019-03-15T14:29:47.712Z,11.00
2019-03-15T14:32:17.078Z,11.00
2019-03-15T14:34:46.305Z,11.00
2019-03-15T14:37:15.629Z,11.10
2019-03-15T14:39:45.129Z,11.20
2019-03-15T14:42:14.485Z,11.40
2019-03-15T14:44:43.966Z,11.50
2019-03-15T14:47:13.276Z,11.40
2019-03-15T14:49:42.575Z,11.60
2019-03-15T14:52:12.183Z,11.70
2019-03-15T14:54:42.409Z,11.70
2019-03-15T14:57:11.852Z,11.70
2019-03-15T14:59:41.138Z,11.70
2019-03-15T15:02:10.486Z,11.70
2019-03-15T15:04:39.868Z,11.60
2019-03-15T15:07:09.262Z,11.50
2019-03-15T15:09:38.678Z,11.40
2019-03-15T15:12:09.801Z,11.10
2019-03-15T15:14:39.238Z,10.90
2019-03-15T15:17:08.604Z,10.80
2019-03-15T15:19:38.079Z,10.70
2019-03-15T15:22:07.361Z,10.60
2019-03-15T15:24:36.732Z,10.50
2019-03-15T15:27:05.995Z,10.50
2019-03-15T15:29:35.323Z,10.50
2019-03-15T15:32:04.686Z,10.50
2019-03-15T15:34:34.046Z,10.60
2019-03-15T15:37:03.339Z,10.60
2019-03-15T15:39:32.711Z,10.60
2019-03-15T15:42:02.049Z,10.60
2019-03-15T15:44:31.358Z,10.60
2019-03-15T15:47:00.726Z,10.60
2019-03-15T15:49:30.061Z,10.60
2019-03-15T15:51:59.448Z,10.60
2019-03-15T15:54:28.814Z,10.70
2019-03-15T15:56:58.130Z,10.70
2019-03-15T15:59:27.536Z,10.60
2019-03-15T16:01:56.878Z,10.70
2019-03-15T16:04:26.214Z,10.70
2019-03-15T16:06:55.599Z,10.70
2019-03-15T16:09:25.021Z,10.60
2019-03-15T16:11:54.306Z,10.60
2019-03-15T16:14:23.674Z,10.50
2019-03-15T16:16:52.972Z,10.50
2019-03-15T16:19:22.242Z,10.50
2019-03-15T16:21:51.598Z,10.50
2019-03-15T16:24:20.881Z,10.40
2019-03-15T16:26:50.282Z,10.40
2019-03-15T16:29:19.685Z,10.30
2019-03-15T16:31:48.972Z,10.30
2019-03-15T16:34:18.343Z,10.20
2019-03-15T16:36:47.681Z,10.20
2019-03-15T16:39:17.099Z,10.20
2019-03-15T16:41:46.492Z,10.10
2019-03-15T16:44:15.877Z,10.10
2019-03-15T16:46:45.265Z,10.00
2019-03-15T16:49:14.628Z,9.90
2019-03-15T16:51:43.930Z,9.90
2019-03-15T16:54:13.149Z,9.90
2019-03-15T16:56:42.578Z,9.80
2019-03-15T16:59:11.905Z,9.90
2019-03-15T17:01:41.326Z,9.90
2019-03-15T17:04:10.656Z,9.90
2019-03-15T17:06:39.984Z,9.90
2019-03-15T17:09:09.357Z,9.90
2019-03-15T17:11:38.775Z,9.80
2019-03-15T17:14:08.177Z,9.70
2019-03-15T17:16:37.562Z,9.60
2019-03-15T17:19:06.852Z,9.60
2019-03-15T17:21:36.241Z,9.60
2019-03-15T17:24:05.617Z,9.60
2019-03-15T17:26:35.019Z,9.60
2019-03-15T17:29:04.384Z,9.60
2019-03-15T17:31:33.771Z,9.70
2019-03-15T17:34:03.200Z,9.70
2019-03-15T17:36:34.003Z,9.70
2019-03-15T17:39:03.719Z,9.70
2019-03-15T17:41:33.042Z,9.80
2019-03-15T17:44:02.306Z,9.70
2019-03-15T17:46:31.643Z,9.70
2019-03-15T17:49:01.019Z,9.70
2019-03-15T17:51:30.329Z,9.70
2019-03-15T17:53:59.680Z,9.60
2019-03-15T17:56:29.059Z,9.50
2019-03-15T17:59:11.953Z,9.40
2019-03-15T18:01:30.524Z,9.30
2019-03-15T18:04:02.018Z,9.20
2019-03-15T18:06:31.413Z,9.10
2019-03-15T18:09:00.697Z,9.00
2019-03-15T18:11:30.225Z,8.90
2019-03-15T18:13:59.728Z,8.80
2019-03-15T18:16:29.000Z,8.80
2019-03-15T18:18:58.601Z,8.70
2019-03-15T18:21:29.987Z,8.70
2019-03-15T18:23:59.374Z,8.70
2019-03-15T18:26:29.241Z,8.60
2019-03-15T18:28:58.475Z,8.60
2019-03-15T18:31:27.858Z,8.50
2019-03-15T18:33:57.175Z,8.50
2019-03-15T18:36:26.486Z,8.50
2019-03-15T18:38:57.320Z,8.50
2019-03-15T18:41:27.344Z,8.50
2019-03-15T18:43:56.854Z,8.50
2019-03-15T18:46:26.170Z,8.50
2019-03-15T18:48:55.466Z,8.50
2019-03-15T18:51:24.812Z,8.40
2019-03-15T18:53:54.159Z,8.50
2019-03-15T18:56:23.437Z,8.40
2019-03-15T18:58:52.704Z,8.40
2019-03-15T19:01:22.016Z,8.40
2019-03-15T19:03:51.405Z,8.40
2019-03-15T19:06:20.676Z,8.30
2019-03-15T19:08:50.071Z,8.30
2019-03-15T19:11:19.439Z,8.30
2019-03-15T19:13:48.756Z,8.30
2019-03-15T19:16:20.315Z,8.30
2019-03-15T19:18:49.014Z,8.20
2019-03-15T19:21:18.399Z,8.20
2019-03-15T19:23:47.765Z,8.10
2019-03-15T19:26:17.062Z,8.10
2019-03-15T19:28:46.508Z,8.20
2019-03-15T19:31:15.770Z,8.10
2019-03-15T19:33:45.149Z,8.00
2019-03-15T19:36:14.516Z,8.00
2019-03-15T19:38:43.910Z,8.00
2019-03-15T19:41:13.291Z,8.00
2019-03-15T19:43:42.646Z,8.00
2019-03-15T19:46:12.222Z,8.00
2019-03-15T19:48:42.245Z,8.10
2019-03-15T19:51:11.667Z,8.10
2019-03-15T19:53:42.747Z,8.20
2019-03-15T19:56:12.107Z,8.20
2019-03-15T19:58:41.532Z,8.20
2019-03-15T20:01:10.834Z,8.20
2019-03-15T20:03:44.332Z,8.20
2019-03-15T20:06:11.334Z,8.20
2019-03-15T20:08:40.701Z,8.20
2019-03-15T20:11:09.945Z,8.20
2019-03-15T20:13:39.192Z,8.20
2019-03-15T20:16:08.613Z,8.20
2019-03-15T20:18:38.010Z,8.20
2019-03-15T20:21:07.327Z,8.10
2019-03-15T20:23:36.646Z,8.20
2019-03-15T20:26:06.427Z,8.10
2019-03-15T20:28:35.880Z,8.10
2019-03-15T20:31:05.187Z,8.10
2019-03-15T20:33:34.522Z,8.20
2019-03-15T20:36:03.893Z,8.20
2019-03-15T20:38:33.386Z,8.20
2019-03-15T20:41:02.662Z,8.20
2019-03-15T20:43:32.004Z,8.30
2019-03-15T20:46:01.366Z,8.30
2019-03-15T20:48:30.701Z,8.40
2019-03-15T20:50:59.990Z,8.30
2019-03-15T20:53:29.288Z,8.30
2019-03-15T20:55:58.582Z,8.30
2019-03-15T20:58:27.989Z,8.30
2019-03-15T21:00:57.270Z,8.30
2019-03-15T21:03:27.301Z,8.30
2019-03-15T21:05:56.775Z,8.30
2019-03-15T21:08:26.113Z,8.20
2019-03-15T21:10:55.419Z,8.30
2019-03-15T21:13:24.838Z,8.30
2019-03-15T21:15:54.238Z,8.30
2019-03-15T21:18:23.548Z,8.30
2019-03-15T21:20:54.225Z,8.30
2019-03-15T21:23:23.551Z,8.30
2019-03-15T21:25:52.941Z,8.30
2019-03-15T21:28:22.312Z,8.30
2019-03-15T21:30:51.673Z,8.30
2019-03-15T21:33:20.998Z,8.30
2019-03-15T21:35:50.280Z,8.30
2019-03-15T21:38:19.668Z,8.20
2019-03-15T21:40:49.103Z,8.20
2019-03-15T21:43:18.417Z,8.20
2019-03-15T21:45:47.813Z,8.20
2019-03-15T21:48:17.114Z,8.20
2019-03-15T21:50:46.448Z,8.20
2019-03-15T21:53:15.781Z,8.20
2019-03-15T21:55:45.435Z,8.20
2019-03-15T21:58:14.933Z,8.20
2019-03-15T22:00:44.314Z,8.10
2019-03-15T22:03:13.629Z,8.10
2019-03-15T22:05:42.936Z,8.00
2019-03-15T22:08:12.323Z,8.00
2019-03-15T22:10:41.697Z,7.90
2019-03-15T22:13:10.997Z,7.90
2019-03-15T22:15:40.303Z,7.80
2019-03-15T22:18:09.651Z,7.80
2019-03-15T22:20:41.892Z,7.70
2019-03-15T22:23:11.199Z,7.60
2019-03-15T22:25:40.526Z,7.60
2019-03-15T22:28:09.879Z,7.60
2019-03-15T22:30:39.293Z,7.50
2019-03-15T22:33:08.559Z,7.50
2019-03-15T22:35:37.933Z,7.50
2019-03-15T22:38:07.223Z,7.50
2019-03-15T22:40:36.596Z,7.40
2019-03-15T22:43:06.097Z,7.40
2019-03-15T22:45:35.446Z,7.40
2019-03-15T22:48:04.930Z,7.30
2019-03-15T22:50:34.296Z,7.30
2019-03-15T22:53:03.754Z,7.30
2019-03-15T22:55:32.963Z,7.40
2019-03-15T22:58:02.256Z,7.30
2019-03-15T23:00:36.206Z,7.30
2019-03-15T23:03:06.381Z,7.30
2019-03-15T23:05:35.681Z,7.30
2019-03-15T23:08:05.024Z,7.30
2019-03-15T23:10:34.423Z,7.30
2019-03-15T23:13:03.936Z,7.40
2019-03-15T23:15:33.265Z,7.40
2019-03-15T23:18:02.610Z,7.40
2019-03-15T23:20:31.936Z,7.50
2019-03-15T23:23:01.334Z,7.40
2019-03-15T23:25:30.652Z,7.50
2019-03-15T23:28:00.084Z,7.50
2019-03-15T23:30:29.493Z,7.50
2019-03-15T23:32:58.879Z,7.50
2019-03-15T23:35:28.146Z,7.60
2019-03-15T23:37:57.471Z,7.60
2019-03-15T23:40:26.728Z,7.60
2019-03-15T23:42:56.009Z,7.50
2019-03-15T23:45:25.848Z,7.50
2019-03-15T23:47:55.106Z,7.50
2019-03-15T23:50:24.400Z,7.50
2019-03-15T23:52:53.696Z,7.40
2019-03-15T23:55:22.961Z,7.50
2019-03-15T23:57:52.275Z,7.50
